createdAt,value
2022-12-23T00:00:57.956Z,7.25
2022-12-23T00:03:57.377Z,7.375
2022-12-23T00:06:57.673Z,7.25
2022-12-23T00:09:57.153Z,7.25
2022-12-23T00:12:56.723Z,7.25
2022-12-23T00:15:58.000Z,7.25
2022-12-23T00:18:57.673Z,7.187
2022-12-23T00:21:57.194Z,7.187
2022-12-23T00:24:57.887Z,7.187
2022-12-23T00:27:57.304Z,7.25
2022-12-23T00:30:57.567Z,7.312
2022-12-23T00:33:56.760Z,7.312
2022-12-23T00:36:57.227Z,7.312
2022-12-23T00:40:02.586Z,7.375
2022-12-23T00:42:57.157Z,7.187
2022-12-23T00:45:57.550Z,7.187
2022-12-23T00:48:57.573Z,7.5
2022-12-23T00:51:56.954Z,7.375
2022-12-23T00:54:57.674Z,7.187
2022-12-23T00:57:57.241Z,7.25
2022-12-23T01:00:57.313Z,7.25
2022-12-23T01:03:57.303Z,7.375
2022-12-23T01:06:57.058Z,7.375
2022-12-23T01:09:56.926Z,7.375
2022-12-23T01:12:56.866Z,7.437
2022-12-23T01:15:57.267Z,7.625
2022-12-23T01:18:57.605Z,7.687
2022-12-23T01:21:57.930Z,7.625
2022-12-23T01:24:57.454Z,7.875
2022-12-23T01:27:57.614Z,7.875
2022-12-23T01:30:58.216Z,8.187
2022-12-23T01:33:57.211Z,8.187
2022-12-23T01:36:58.175Z,8.062
2022-12-23T01:39:57.434Z,8.25
2022-12-23T01:42:57.696Z,8.25
2022-12-23T01:45:57.607Z,8.437
2022-12-23T01:48:57.263Z,8.437
2022-12-23T01:51:57.078Z,8.5
2022-12-23T01:54:57.942Z,8.5
2022-12-23T01:57:58.058Z,8.437
2022-12-23T02:00:58.038Z,8.437
2022-12-23T02:03:56.937Z,8.375
2022-12-23T02:06:56.913Z,8.562
2022-12-23T02:09:57.238Z,8.562
2022-12-23T02:12:57.772Z,8.562
2022-12-23T02:15:57.981Z,8.562
2022-12-23T02:18:56.897Z,8.625
2022-12-23T02:21:57.017Z,8.75
2022-12-23T02:24:57.610Z,8.75
2022-12-23T02:27:56.681Z,8.875
2022-12-23T02:30:56.805Z,8.875
2022-12-23T02:33:57.179Z,8.812
2022-12-23T02:36:57.996Z,8.937
2022-12-23T02:39:57.564Z,8.937
2022-12-23T02:42:57.604Z,9.0
2022-12-23T02:45:57.419Z,8.875
2022-12-23T02:48:57.479Z,9.0
2022-12-23T02:51:58.439Z,8.937
2022-12-23T02:54:57.766Z,8.937
2022-12-23T02:57:56.954Z,8.812
2022-12-23T03:00:57.428Z,8.875
2022-12-23T03:03:57.471Z,8.812
2022-12-23T03:06:57.321Z,8.812
2022-12-23T03:09:57.127Z,9.125
2022-12-23T03:12:57.003Z,9.062
2022-12-23T03:15:58.363Z,9.0
2022-12-23T03:18:57.080Z,9.0
2022-12-23T03:21:57.037Z,9.312
2022-12-23T03:24:57.096Z,9.375
2022-12-23T03:27:56.905Z,9.312
2022-12-23T03:30:57.645Z,9.25
2022-12-23T03:33:57.024Z,9.125
2022-12-23T03:36:57.452Z,9.125
2022-12-23T03:39:57.680Z,9.125
2022-12-23T03:42:56.770Z,9.125
2022-12-23T03:45:56.988Z,9.25
2022-12-23T03:48:56.921Z,9.125
2022-12-23T03:51:57.456Z,9.187
2022-12-23T03:54:57.421Z,9.437
2022-12-23T03:57:57.630Z,9.25
2022-12-23T04:00:57.441Z,9.312
2022-12-23T04:03:57.539Z,9.25
2022-12-23T04:06:56.660Z,9.25
2022-12-23T04:09:58.249Z,9.125
2022-12-23T04:12:57.476Z,9.187
2022-12-23T04:15:57.955Z,9.125
2022-12-23T04:18:57.498Z,9.062
2022-12-23T04:21:57.580Z,9.062
2022-12-23T04:24:57.230Z,9.125
2022-12-23T04:27:57.607Z,9.125
2022-12-23T04:30:57.553Z,9.0
2022-12-23T04:33:57.677Z,9.062
2022-12-23T04:36:57.076Z,9.125
2022-12-23T04:39:57.899Z,9.062
2022-12-23T04:42:57.602Z,9.062
2022-12-23T04:45:57.087Z,9.125
2022-12-23T04:48:57.424Z,9.125
2022-12-23T04:51:57.206Z,9.125
2022-12-23T04:54:57.883Z,9.187
2022-12-23T04:57:57.122Z,9.25
2022-12-23T05:00:57.471Z,9.25
2022-12-23T05:03:56.755Z,9.25
2022-12-23T05:06:57.614Z,9.187
2022-12-23T05:09:57.537Z,9.187
2022-12-23T05:12:57.475Z,9.25
2022-12-23T05:15:57.345Z,9.25
2022-12-23T05:18:57.400Z,9.187
2022-12-23T05:21:56.693Z,9.187
2022-12-23T05:24:57.659Z,9.125
2022-12-23T05:27:57.198Z,9.187
2022-12-23T05:30:57.840Z,9.187
2022-12-23T05:34:02.294Z,9.187
2022-12-23T05:36:57.758Z,9.187
2022-12-23T05:39:58.121Z,9.312
2022-12-23T05:42:57.644Z,9.187
2022-12-23T05:45:57.783Z,9.187
2022-12-23T05:48:57.788Z,9.062
2022-12-23T05:51:57.273Z,9.062
2022-12-23T05:54:57.442Z,9.062
2022-12-23T05:57:57.728Z,9.062
2022-12-23T06:00:58.792Z,8.937
2022-12-23T06:03:57.829Z,8.875
2022-12-23T06:06:57.128Z,8.875
2022-12-23T06:09:58.402Z,8.812
2022-12-23T06:12:57.148Z,8.75
2022-12-23T06:15:57.498Z,8.75
2022-12-23T06:18:58.540Z,8.75
2022-12-23T06:21:57.593Z,8.75
2022-12-23T06:24:58.060Z,8.75
2022-12-23T06:27:57.006Z,8.75
2022-12-23T06:30:57.166Z,8.75
2022-12-23T06:33:57.339Z,8.812
2022-12-23T06:36:57.004Z,8.812
2022-12-23T06:39:57.664Z,8.812
2022-12-23T06:42:57.967Z,8.812
2022-12-23T06:45:57.918Z,8.875
2022-12-23T06:48:58.320Z,8.875
2022-12-23T06:51:57.118Z,8.875
2022-12-23T06:54:57.778Z,9.062
2022-12-23T06:57:57.274Z,9.062
2022-12-23T07:00:58.061Z,9.062
2022-12-23T07:03:57.895Z,9.062
2022-12-23T07:06:57.952Z,9.062
2022-12-23T07:10:03.610Z,8.812
2022-12-23T07:12:58.319Z,8.75
2022-12-23T07:15:57.617Z,8.75
2022-12-23T07:18:58.009Z,8.875
2022-12-23T07:21:58.463Z,8.875
2022-12-23T07:24:57.775Z,8.812
2022-12-23T07:27:58.054Z,8.812
2022-12-23T07:30:57.881Z,8.812
2022-12-23T07:33:57.601Z,8.812
2022-12-23T07:36:57.404Z,8.875
2022-12-23T07:39:56.731Z,8.812
2022-12-23T07:42:57.097Z,8.937
2022-12-23T07:46:00.739Z,8.937
2022-12-23T07:48:57.852Z,8.937
2022-12-23T07:51:57.351Z,8.937
2022-12-23T07:54:57.061Z,8.937
2022-12-23T07:57:57.656Z,8.812
2022-12-23T08:00:57.916Z,8.812
2022-12-23T08:03:57.876Z,8.875
2022-12-23T08:06:57.449Z,8.937
2022-12-23T08:09:57.587Z,9.062
2022-12-23T08:12:57.748Z,9.125
2022-12-23T08:15:57.726Z,9.062
2022-12-23T08:18:57.345Z,9.062
2022-12-23T08:21:57.930Z,9.062
2022-12-23T08:24:57.172Z,9.062
2022-12-23T08:27:57.540Z,9.062
2022-12-23T08:30:57.626Z,9.062
2022-12-23T08:33:57.687Z,9.125
2022-12-23T08:36:57.131Z,9.187
2022-12-23T08:39:57.574Z,9.25
2022-12-23T08:42:57.065Z,9.187
2022-12-23T08:45:57.807Z,9.187
2022-12-23T08:48:57.824Z,9.187
2022-12-23T08:51:57.504Z,9.125
2022-12-23T08:54:57.347Z,9.187
2022-12-23T08:57:56.924Z,9.187
2022-12-23T09:00:57.450Z,9.25
2022-12-23T09:03:57.554Z,9.187
2022-12-23T09:06:57.132Z,9.25
2022-12-23T09:09:58.199Z,9.25
2022-12-23T09:12:58.231Z,9.25
2022-12-23T09:15:57.384Z,9.312
2022-12-23T09:18:58.091Z,9.562
2022-12-23T09:21:57.431Z,9.562
2022-12-23T09:25:03.124Z,10.062
2022-12-23T09:27:57.236Z,9.875
2022-12-23T09:30:58.436Z,9.937
2022-12-23T09:33:57.595Z,10.187
2022-12-23T09:36:57.384Z,10.187
2022-12-23T09:39:57.670Z,10.125
2022-12-23T09:42:57.675Z,10.0
2022-12-23T09:45:57.541Z,10.062
2022-12-23T09:48:58.514Z,10.062
2022-12-23T09:51:57.756Z,10.062
2022-12-23T09:54:57.849Z,10.125
2022-12-23T09:57:57.479Z,10.125
2022-12-23T10:00:57.781Z,10.25
2022-12-23T10:03:57.585Z,10.25
2022-12-23T10:07:02.602Z,10.125
2022-12-23T10:09:57.265Z,10.125
2022-12-23T10:13:02.621Z,10.125
2022-12-23T10:15:58.484Z,10.125
2022-12-23T10:18:57.542Z,10.187
2022-12-23T10:21:58.757Z,10.25
2022-12-23T10:24:57.607Z,10.187
2022-12-23T10:27:57.198Z,10.187
2022-12-23T10:31:30.609Z,10.062
2022-12-23T10:33:57.665Z,10.062
2022-12-23T10:36:57.697Z,10.125
2022-12-23T10:39:57.275Z,10.125
2022-12-23T10:42:57.746Z,10.25
2022-12-23T10:45:57.934Z,10.125
2022-12-23T10:48:57.635Z,10.187
2022-12-23T10:51:57.853Z,10.0
2022-12-23T10:54:57.719Z,10.062
2022-12-23T10:57:56.978Z,10.125
2022-12-23T11:00:58.783Z,10.312
2022-12-23T11:04:16.164Z,10.375
2022-12-23T11:07:26.279Z,10.5
2022-12-23T11:09:56.999Z,10.562
2022-12-23T11:12:58.220Z,10.562
2022-12-23T11:15:58.023Z,10.687
2022-12-23T11:18:57.202Z,10.687
2022-12-23T11:21:57.455Z,10.875
2022-12-23T11:24:57.951Z,11.0
2022-12-23T11:27:57.278Z,11.0
2022-12-23T11:30:58.266Z,10.875
2022-12-23T11:33:57.159Z,10.812
2022-12-23T11:37:03.305Z,10.812
2022-12-23T11:39:57.571Z,10.5
2022-12-23T11:42:57.202Z,10.375
2022-12-23T11:45:57.686Z,10.312
2022-12-23T11:48:57.112Z,10.312
2022-12-23T11:51:56.811Z,10.312
2022-12-23T11:54:57.662Z,10.375
2022-12-23T11:57:57.979Z,10.375
2022-12-23T12:00:58.386Z,10.5
2022-12-23T12:03:57.972Z,10.5
2022-12-23T12:06:57.599Z,10.5
2022-12-23T12:09:57.833Z,10.5
2022-12-23T12:12:56.801Z,10.5
2022-12-23T12:15:57.809Z,10.437
2022-12-23T12:18:57.292Z,10.375
2022-12-23T12:21:57.092Z,10.375
2022-12-23T12:24:56.656Z,10.375
2022-12-23T12:27:56.864Z,10.187
2022-12-23T12:30:58.019Z,10.25
2022-12-23T12:33:57.433Z,10.25
2022-12-23T12:36:57.197Z,10.25
2022-12-23T12:39:57.668Z,10.25
2022-12-23T12:43:00.039Z,10.25
2022-12-23T12:45:58.058Z,10.25
2022-12-23T12:48:57.186Z,10.25
2022-12-23T12:51:58.285Z,10.25
2022-12-23T12:54:57.704Z,10.125
2022-12-23T12:57:57.993Z,10.187
2022-12-23T13:00:58.122Z,10.312
2022-12-23T13:03:57.701Z,10.375
2022-12-23T13:06:57.580Z,10.437
2022-12-23T13:09:57.025Z,10.312
2022-12-23T13:12:57.857Z,10.312
2022-12-23T13:15:57.812Z,10.375
2022-12-23T13:18:57.528Z,10.375
2022-12-23T13:21:57.965Z,10.375
2022-12-23T13:24:57.476Z,10.312
2022-12-23T13:27:57.366Z,10.312
2022-12-23T13:30:57.248Z,10.312
2022-12-23T13:33:57.728Z,10.312
2022-12-23T13:36:57.414Z,10.312
2022-12-23T13:39:57.461Z,10.312
2022-12-23T13:42:57.635Z,10.312
2022-12-23T13:45:57.120Z,10.312
2022-12-23T13:48:57.957Z,10.375
2022-12-23T13:51:57.906Z,10.5
2022-12-23T13:54:57.274Z,10.437
2022-12-23T13:57:57.119Z,10.437
2022-12-23T14:00:57.409Z,10.437
2022-12-23T14:03:57.078Z,10.312
2022-12-23T14:06:57.232Z,10.312
2022-12-23T14:09:57.033Z,10.312
2022-12-23T14:12:57.062Z,10.375
2022-12-23T14:15:57.711Z,10.375
2022-12-23T14:18:57.497Z,10.125
2022-12-23T14:21:58.687Z,10.125
2022-12-23T14:24:57.280Z,10.125
2022-12-23T14:27:57.627Z,10.375
2022-12-23T14:30:57.527Z,10.5
2022-12-23T14:33:57.641Z,10.5
2022-12-23T14:36:57.748Z,10.375
2022-12-23T14:39:58.136Z,10.25
2022-12-23T14:42:57.162Z,10.437
2022-12-23T14:45:58.292Z,10.5
2022-12-23T14:49:22.543Z,10.5
2022-12-23T14:51:57.494Z,10.5
2022-12-23T14:55:28.474Z,10.5
2022-12-23T14:57:57.312Z,10.5
2022-12-23T15:00:58.709Z,10.75
2022-12-23T15:04:01.327Z,10.812
2022-12-23T15:06:57.307Z,10.812
2022-12-23T15:10:00.757Z,10.5
2022-12-23T15:12:57.940Z,10.562
2022-12-23T15:16:01.779Z,10.562
2022-12-23T15:18:57.436Z,10.562
2022-12-23T15:22:07.727Z,10.5
2022-12-23T15:24:57.148Z,10.562
2022-12-23T15:28:01.910Z,10.562
2022-12-23T15:30:58.188Z,10.562
2022-12-23T15:34:04.882Z,10.375
2022-12-23T15:36:57.440Z,10.312
2022-12-23T15:40:04.924Z,10.437
2022-12-23T15:42:57.340Z,10.562
2022-12-23T15:45:57.200Z,10.625
2022-12-23T15:48:57.427Z,10.812
2022-12-23T15:52:07.776Z,10.75
2022-12-23T15:54:56.945Z,10.812
2022-12-23T15:57:57.200Z,10.687
2022-12-23T16:00:57.632Z,10.687
2022-12-23T16:03:57.614Z,11.125
2022-12-23T16:06:57.730Z,10.937
2022-12-23T16:09:56.789Z,10.875
2022-12-23T16:12:57.400Z,10.875
2022-12-23T16:15:57.566Z,10.875
2022-12-23T16:18:57.355Z,10.875
2022-12-23T16:21:57.096Z,10.875
2022-12-23T16:24:57.599Z,11.062
2022-12-23T16:27:57.231Z,11.062
2022-12-23T16:30:58.365Z,11.125
2022-12-23T16:33:57.712Z,11.125
2022-12-23T16:36:58.170Z,11.125
2022-12-23T16:39:58.636Z,11.312
2022-12-23T16:42:58.312Z,11.312
2022-12-23T16:45:57.811Z,11.375
2022-12-23T16:48:57.246Z,11.125
2022-12-23T16:51:57.577Z,11.125
2022-12-23T16:54:57.759Z,11.0
2022-12-23T16:57:58.076Z,11.0
2022-12-23T17:00:58.474Z,11.062
2022-12-23T17:03:57.528Z,10.875
2022-12-23T17:07:03.216Z,11.0
2022-12-23T17:09:57.726Z,10.937
2022-12-23T17:12:57.346Z,10.937
2022-12-23T17:15:57.778Z,10.937
2022-12-23T17:18:57.433Z,10.875
2022-12-23T17:21:56.813Z,10.875
2022-12-23T17:24:57.268Z,11.062
2022-12-23T17:27:57.195Z,10.937
2022-12-23T17:30:57.007Z,10.812
2022-12-23T17:33:58.133Z,10.75
2022-12-23T17:36:58.202Z,10.812
2022-12-23T17:39:57.980Z,10.875
2022-12-23T17:42:57.603Z,10.812
2022-12-23T17:45:58.492Z,11.062
2022-12-23T17:48:57.060Z,11.062
2022-12-23T17:51:57.222Z,10.875
2022-12-23T17:54:57.618Z,11.187
2022-12-23T17:57:57.028Z,11.25
2022-12-23T18:01:26.007Z,11.187
2022-12-23T18:03:56.814Z,11.312
2022-12-23T18:06:56.979Z,11.062
2022-12-23T18:09:57.522Z,11.062
2022-12-23T18:12:57.272Z,11.187
2022-12-23T18:15:57.268Z,11.187
2022-12-23T18:18:57.573Z,11.187
2022-12-23T18:21:57.607Z,10.75
2022-12-23T18:24:59.533Z,10.687
2022-12-23T18:27:57.921Z,10.625
2022-12-23T18:30:57.676Z,10.75
2022-12-23T18:33:57.445Z,10.562
2022-12-23T18:36:58.095Z,10.5
2022-12-23T18:39:58.390Z,10.5
2022-12-23T18:42:57.427Z,10.5
2022-12-23T18:45:57.544Z,10.375
2022-12-23T18:48:57.847Z,10.375
2022-12-23T18:51:56.854Z,10.062
2022-12-23T18:54:57.336Z,10.062
2022-12-23T18:57:56.899Z,9.937
2022-12-23T19:00:58.358Z,9.937
2022-12-23T19:03:57.029Z,9.937
2022-12-23T19:06:57.376Z,9.937
2022-12-23T19:09:56.949Z,9.812
2022-12-23T19:12:57.588Z,9.812
2022-12-23T19:15:58.291Z,9.937
2022-12-23T19:18:58.203Z,9.75
2022-12-23T19:21:57.824Z,9.937
2022-12-23T19:25:04.739Z,10.0
2022-12-23T19:27:56.945Z,10.0
2022-12-23T19:30:58.119Z,10.062
2022-12-23T19:33:57.736Z,10.0
2022-12-23T19:36:57.491Z,9.937
2022-12-23T19:39:58.421Z,10.0
2022-12-23T19:42:57.127Z,10.125
2022-12-23T19:45:57.443Z,10.0
2022-12-23T19:48:57.114Z,10.0
2022-12-23T19:51:58.617Z,10.0
2022-12-23T19:54:57.984Z,10.125
2022-12-23T19:57:58.016Z,10.0
2022-12-23T20:00:57.766Z,10.0
2022-12-23T20:03:57.301Z,10.0
2022-12-23T20:06:58.126Z,10.0
2022-12-23T20:09:57.703Z,10.125
2022-12-23T20:12:57.266Z,10.125
2022-12-23T20:15:57.527Z,10.125
2022-12-23T20:18:57.275Z,10.125
2022-12-23T20:21:58.488Z,9.812
2022-12-23T20:24:57.431Z,9.75
2022-12-23T20:27:56.933Z,9.75
2022-12-23T20:30:58.480Z,9.937
2022-12-23T20:33:58.215Z,9.875
2022-12-23T20:36:57.294Z,9.812
2022-12-23T20:40:03.200Z,9.75
2022-12-23T20:42:57.744Z,9.812
2022-12-23T20:45:57.499Z,9.812
2022-12-23T20:48:57.658Z,9.812
2022-12-23T20:51:57.334Z,9.812
2022-12-23T20:54:57.832Z,9.875
2022-12-23T20:57:57.338Z,9.875
2022-12-23T21:00:57.315Z,9.937
2022-12-23T21:03:57.670Z,9.875
2022-12-23T21:06:57.595Z,10.0
2022-12-23T21:09:57.709Z,10.0
2022-12-23T21:12:58.237Z,9.937
2022-12-23T21:15:57.918Z,9.937
2022-12-23T21:18:57.060Z,9.937
2022-12-23T21:21:57.515Z,9.937
2022-12-23T21:24:57.951Z,9.812
2022-12-23T21:27:57.473Z,9.812
2022-12-23T21:30:57.593Z,9.75
2022-12-23T21:33:57.355Z,9.75
2022-12-23T21:36:58.258Z,9.75
2022-12-23T21:39:57.605Z,9.812
2022-12-23T21:42:57.052Z,9.937
2022-12-23T21:45:57.962Z,9.875
2022-12-23T21:48:57.683Z,9.75
2022-12-23T21:51:57.501Z,9.625
2022-12-23T21:54:57.640Z,9.562
2022-12-23T21:57:57.975Z,9.437
2022-12-23T22:00:58.005Z,9.312
2022-12-23T22:03:57.951Z,9.25
2022-12-23T22:06:57.581Z,9.187
2022-12-23T22:09:57.286Z,9.25
2022-12-23T22:12:57.242Z,9.25
2022-12-23T22:15:57.772Z,9.25
2022-12-23T22:18:57.110Z,9.187
2022-12-23T22:21:57.734Z,9.187
2022-12-23T22:24:57.443Z,9.125
2022-12-23T22:27:57.701Z,9.312
2022-12-23T22:30:57.305Z,9.312
2022-12-23T22:33:57.335Z,9.312
2022-12-23T22:36:57.341Z,9.312
2022-12-23T22:39:57.949Z,9.125
2022-12-23T22:42:57.161Z,9.125
2022-12-23T22:45:57.501Z,9.125
2022-12-23T22:48:56.954Z,9.125
2022-12-23T22:51:58.024Z,9.25
2022-12-23T22:54:57.501Z,9.375
2022-12-23T22:57:57.102Z,9.187
2022-12-23T23:00:57.972Z,9.25
2022-12-23T23:03:57.662Z,9.187
2022-12-23T23:06:57.694Z,8.937
2022-12-23T23:09:57.794Z,8.937
2022-12-23T23:12:57.196Z,8.562
2022-12-23T23:15:57.596Z,8.562
2022-12-23T23:18:58.150Z,8.375
2022-12-23T23:21:57.015Z,8.375
2022-12-23T23:24:57.129Z,8.312
2022-12-23T23:27:57.437Z,8.312
2022-12-23T23:31:23.920Z,8.25
2022-12-23T23:33:56.660Z,8.125
2022-12-23T23:36:58.176Z,8.125
2022-12-23T23:39:57.835Z,8.125
2022-12-23T23:42:57.061Z,8.125
2022-12-23T23:45:57.394Z,8.125
2022-12-23T23:48:57.391Z,8.187
2022-12-23T23:51:56.450Z,8.062
2022-12-23T23:54:57.596Z,7.875
2022-12-23T23:57:57.458Z,7.812
